createdAt,value
2023-05-21T00:02:15.424Z,11.11
2023-05-21T00:05:21.564Z,11.17
2023-05-21T00:08:26.861Z,11.19
2023-05-21T00:11:34.028Z,11.14
2023-05-21T00:14:39.451Z,11.10
2023-05-21T00:17:46.143Z,10.98
2023-05-21T00:20:51.246Z,10.92
2023-05-21T00:23:56.528Z,10.99
2023-05-21T00:27:02.953Z,11.01
2023-05-21T00:30:10.847Z,11.00
2023-05-21T00:33:15.982Z,10.91
2023-05-21T00:36:24.016Z,10.95
2023-05-21T00:39:29.162Z,10.91
2023-05-21T00:42:39.409Z,10.93
2023-05-21T00:45:46.810Z,10.89
2023-05-21T00:48:52.481Z,10.90
2023-05-21T00:51:58.072Z,10.86
2023-05-21T00:55:03.189Z,10.77
2023-05-21T00:58:09.686Z,10.82
2023-05-21T01:01:16.194Z,10.76
2023-05-21T01:04:21.634Z,10.70
2023-05-21T01:07:29.760Z,10.76
2023-05-21T01:10:34.970Z,10.71
2023-05-21T01:13:42.010Z,10.68
2023-05-21T01:16:49.573Z,10.71
2023-05-21T01:19:54.949Z,10.65
2023-05-21T01:23:01.661Z,10.53
2023-05-21T01:26:08.652Z,10.54
2023-05-21T01:29:14.542Z,10.55
2023-05-21T01:32:25.358Z,10.50
2023-05-21T01:35:34.075Z,10.41
2023-05-21T01:38:44.014Z,10.34
2023-05-21T01:41:50.527Z,10.50
2023-05-21T01:44:57.629Z,10.40
2023-05-21T01:48:03.079Z,10.45
2023-05-21T01:51:08.717Z,10.44
2023-05-21T01:54:15.100Z,10.43
2023-05-21T01:57:20.180Z,10.38
2023-05-21T02:00:28.789Z,10.40
2023-05-21T02:03:34.106Z,10.38
2023-05-21T02:06:39.658Z,10.34
2023-05-21T02:09:46.262Z,10.33
2023-05-21T02:12:51.296Z,10.29
2023-05-21T02:15:56.829Z,10.30
2023-05-21T02:19:04.286Z,10.20
2023-05-21T02:22:09.349Z,10.25
2023-05-21T02:25:18.390Z,10.24
2023-05-21T02:28:23.996Z,10.26
2023-05-21T02:31:29.800Z,10.19
2023-05-21T02:34:36.583Z,10.24
2023-05-21T02:37:41.933Z,10.26
2023-05-21T02:40:48.522Z,10.15
2023-05-21T02:43:53.494Z,10.13
2023-05-21T02:46:58.952Z,10.13
2023-05-21T02:50:04.285Z,10.06
2023-05-21T02:53:10.541Z,10.07
2023-05-21T02:56:17.738Z,10.19
2023-05-21T02:59:23.149Z,10.27
2023-05-21T03:02:28.834Z,10.33
2023-05-21T03:05:34.074Z,10.40
2023-05-21T03:08:39.478Z,10.43
2023-05-21T03:11:46.376Z,10.60
2023-05-21T03:14:52.481Z,10.66
2023-05-21T03:17:58.636Z,10.66
2023-05-21T03:21:04.525Z,10.77
2023-05-21T03:24:13.770Z,10.87
2023-05-21T03:27:20.402Z,10.90
2023-05-21T03:30:27.473Z,10.96
2023-05-21T03:33:52.759Z,11.03
2023-05-21T03:37:03.750Z,11.02
2023-05-21T03:40:11.116Z,11.08
2023-05-21T03:43:17.676Z,11.13
2023-05-21T03:46:23.488Z,11.20
2023-05-21T03:49:48.904Z,11.26
2023-05-21T03:52:53.891Z,11.29
2023-05-21T03:55:59.054Z,11.35
2023-05-21T03:59:05.806Z,11.35
2023-05-21T04:02:11.408Z,11.36
2023-05-21T04:05:16.653Z,11.55
2023-05-21T04:08:21.947Z,11.54
2023-05-21T04:11:27.378Z,11.62
2023-05-21T04:14:34.314Z,11.61
2023-05-21T04:17:40.009Z,11.66
2023-05-21T04:20:45.755Z,11.76
2023-05-21T04:23:51.129Z,11.89
2023-05-21T04:27:10.035Z,11.95
2023-05-21T04:30:16.968Z,12.00
2023-05-21T04:33:23.132Z,12.03
2023-05-21T04:36:30.257Z,12.21
2023-05-21T04:39:36.410Z,12.16
2023-05-21T04:42:41.831Z,12.15
2023-05-21T04:45:49.708Z,12.27
2023-05-21T04:48:56.288Z,12.20
2023-05-21T04:52:01.705Z,12.28
2023-05-21T04:55:07.639Z,12.35
2023-05-21T04:58:14.751Z,12.27
2023-05-21T05:01:22.964Z,12.25
2023-05-21T05:04:28.077Z,12.35
2023-05-21T05:07:33.774Z,12.50
2023-05-21T05:10:39.023Z,12.48
2023-05-21T05:13:44.127Z,12.51
2023-05-21T05:16:50.671Z,12.59
2023-05-21T05:19:56.098Z,12.65
2023-05-21T05:23:01.783Z,12.65
2023-05-21T05:26:06.939Z,12.57
2023-05-21T05:29:12.832Z,12.65
2023-05-21T05:32:19.803Z,12.76
2023-05-21T05:35:25.052Z,12.77
2023-05-21T05:38:30.095Z,12.90
2023-05-21T05:41:35.242Z,12.89
2023-05-21T05:44:40.314Z,12.99
2023-05-21T05:47:47.653Z,13.09
2023-05-21T05:50:54.792Z,13.13
2023-05-21T05:54:02.805Z,13.27
2023-05-21T05:57:08.499Z,13.52
2023-05-21T06:00:17.425Z,13.62
2023-05-21T06:03:29.777Z,13.99
2023-05-21T06:06:36.838Z,13.89
2023-05-21T06:09:41.990Z,13.96
2023-05-21T06:12:47.593Z,14.10
2023-05-21T06:15:53.733Z,14.20
2023-05-21T06:19:00.350Z,14.36
2023-05-21T06:22:05.953Z,14.43
2023-05-21T06:25:11.762Z,14.57
2023-05-21T06:28:17.845Z,14.72
2023-05-21T06:31:23.049Z,14.90
2023-05-21T06:34:29.811Z,15.08
2023-05-21T06:37:35.243Z,15.04
2023-05-21T06:40:40.582Z,15.10
2023-05-21T06:43:50.397Z,15.21
2023-05-21T06:47:10.885Z,15.42
2023-05-21T06:50:17.707Z,15.46
2023-05-21T06:53:23.420Z,15.77
2023-05-21T06:56:28.680Z,15.90
2023-05-21T06:59:33.732Z,15.89
2023-05-21T07:02:39.426Z,16.05
2023-05-21T07:05:46.380Z,16.19
2023-05-21T07:08:51.827Z,16.43
2023-05-21T07:11:56.856Z,16.61
2023-05-21T07:15:01.948Z,16.78
2023-05-21T07:18:08.008Z,17.06
2023-05-21T07:21:14.733Z,17.23
2023-05-21T07:24:20.156Z,17.27
2023-05-21T07:27:26.237Z,17.39
2023-05-21T07:30:33.072Z,17.52
2023-05-21T07:33:39.912Z,17.61
2023-05-21T07:36:48.513Z,17.65
2023-05-21T07:39:55.782Z,17.68
2023-05-21T07:43:00.864Z,17.69
2023-05-21T07:46:08.299Z,17.63
2023-05-21T07:49:16.849Z,17.65
2023-05-21T07:52:24.981Z,17.61
2023-05-21T07:55:30.556Z,17.66
2023-05-21T07:58:36.286Z,17.78
2023-05-21T08:01:42.107Z,17.96
2023-05-21T08:04:47.437Z,17.93
2023-05-21T08:07:54.390Z,17.99
2023-05-21T08:11:00.531Z,18.07
2023-05-21T08:14:06.497Z,18.10
2023-05-21T08:17:12.546Z,18.31
2023-05-21T08:20:17.866Z,18.44
2023-05-21T08:23:25.317Z,18.56
2023-05-21T08:26:33.488Z,18.59
2023-05-21T08:29:39.092Z,18.50
2023-05-21T08:32:44.941Z,18.60
2023-05-21T08:35:50.646Z,18.56
2023-05-21T08:39:04.376Z,18.54
2023-05-21T08:42:36.528Z,18.54
2023-05-21T08:45:46.300Z,18.51
2023-05-21T08:48:55.021Z,18.42
2023-05-21T08:52:02.237Z,18.61
2023-05-21T08:55:10.540Z,18.60
2023-05-21T08:58:16.976Z,18.62
2023-05-21T09:01:24.163Z,18.44
2023-05-21T09:04:41.496Z,18.38
2023-05-21T09:07:52.261Z,18.42
2023-05-21T09:11:18.574Z,18.44
2023-05-21T09:14:30.849Z,18.36
2023-05-21T09:17:41.331Z,18.36
2023-05-21T09:21:26.720Z,18.56
2023-05-21T09:24:36.433Z,18.48
2023-05-21T09:27:44.514Z,18.52
2023-05-21T09:30:50.764Z,18.22
2023-05-21T09:33:56.689Z,18.22
2023-05-21T09:37:04.997Z,18.43
2023-05-21T09:40:15.514Z,18.41
2023-05-21T09:43:23.879Z,18.53
2023-05-21T09:46:33.664Z,18.49
2023-05-21T09:49:39.506Z,18.49
2023-05-21T09:52:44.554Z,18.62
2023-05-21T09:55:49.489Z,18.84
2023-05-21T09:58:57.328Z,18.90
2023-05-21T10:02:02.685Z,18.82
2023-05-21T10:05:11.298Z,18.84
2023-05-21T10:08:18.330Z,18.71
2023-05-21T10:11:26.527Z,19.01
2023-05-21T10:14:34.362Z,19.18
2023-05-21T10:17:40.236Z,19.29
2023-05-21T10:20:45.740Z,19.13
2023-05-21T10:23:51.341Z,19.27
2023-05-21T10:26:56.438Z,19.19
2023-05-21T10:30:03.625Z,19.29
2023-05-21T10:33:09.421Z,19.10
2023-05-21T10:36:15.777Z,19.07
2023-05-21T10:39:21.404Z,19.21
2023-05-21T10:43:13.780Z,19.35
2023-05-21T10:46:46.367Z,19.30
2023-05-21T10:50:05.215Z,19.32
2023-05-21T10:53:18.177Z,19.48
2023-05-21T10:56:26.496Z,19.40
2023-05-21T10:59:41.476Z,19.34
2023-05-21T11:02:48.875Z,19.30
2023-05-21T11:05:55.953Z,19.44
2023-05-21T11:09:03.950Z,19.49
2023-05-21T11:12:09.885Z,19.36
2023-05-21T11:15:17.980Z,19.53
2023-05-21T11:18:24.406Z,19.67
2023-05-21T11:21:31.855Z,19.72
2023-05-21T11:24:40.214Z,19.90
2023-05-21T11:27:45.561Z,20.04
2023-05-21T11:31:24.062Z,20.20
2023-05-21T11:34:39.487Z,20.36
2023-05-21T11:37:46.879Z,20.55
2023-05-21T11:40:55.083Z,20.39
2023-05-21T11:44:03.131Z,20.57
2023-05-21T11:47:09.197Z,20.74
2023-05-21T11:50:16.846Z,20.94
2023-05-21T11:53:22.281Z,20.93
2023-05-21T11:56:27.950Z,20.86
2023-05-21T11:59:33.521Z,21.01
2023-05-21T12:02:38.709Z,21.04
2023-05-21T12:05:49.453Z,21.07
2023-05-21T12:08:58.682Z,20.92
2023-05-21T12:12:05.627Z,21.26
2023-05-21T12:15:13.282Z,21.06
2023-05-21T12:18:18.365Z,21.24
2023-05-21T12:21:24.843Z,21.30
2023-05-21T12:24:29.846Z,21.31
2023-05-21T12:27:37.187Z,21.43
2023-05-21T12:30:42.225Z,21.33
2023-05-21T12:33:49.317Z,21.51
2023-05-21T12:36:55.825Z,21.50
2023-05-21T12:40:01.837Z,21.44
2023-05-21T12:43:07.516Z,21.36
2023-05-21T12:46:14.845Z,21.52
2023-05-21T12:49:34.184Z,21.65
2023-05-21T12:52:43.224Z,21.74
2023-05-21T12:55:48.543Z,21.82
2023-05-21T12:58:54.447Z,21.73
2023-05-21T13:01:59.690Z,21.68
2023-05-21T13:05:06.496Z,21.71
2023-05-21T13:08:15.687Z,21.61
2023-05-21T13:11:21.746Z,21.87
2023-05-21T13:14:26.791Z,21.90
2023-05-21T13:17:32.077Z,22.04
2023-05-21T13:20:37.846Z,21.82
2023-05-21T13:23:44.684Z,22.00
2023-05-21T13:26:49.777Z,22.10
2023-05-21T13:29:55.110Z,22.26
2023-05-21T13:33:00.312Z,23.82
2023-05-21T13:36:05.601Z,24.27
2023-05-21T13:39:13.242Z,24.73
2023-05-21T13:42:20.086Z,23.79
2023-05-21T13:45:29.276Z,23.33
2023-05-21T13:48:34.592Z,23.70
2023-05-21T13:51:39.629Z,22.91
2023-05-21T13:54:46.454Z,22.75
2023-05-21T13:57:51.487Z,22.84
2023-05-21T14:00:56.514Z,22.98
2023-05-21T14:04:04.355Z,22.91
2023-05-21T14:07:12.088Z,22.78
2023-05-21T14:10:18.546Z,22.49
2023-05-21T14:13:23.861Z,22.60
2023-05-21T14:16:29.322Z,22.83
2023-05-21T14:19:34.615Z,22.92
2023-05-21T14:22:40.235Z,22.86
2023-05-21T14:25:46.891Z,22.43
2023-05-21T14:28:52.069Z,22.62
2023-05-21T14:31:57.283Z,22.76
2023-05-21T14:35:02.434Z,22.78
2023-05-21T14:38:07.544Z,22.68
2023-05-21T14:41:14.702Z,22.76
2023-05-21T14:44:20.217Z,22.55
2023-05-21T14:47:25.335Z,22.65
2023-05-21T14:50:30.331Z,22.62
2023-05-21T14:53:35.348Z,22.37
2023-05-21T14:56:41.799Z,22.37
2023-05-21T14:59:46.795Z,22.34
2023-05-21T15:02:52.571Z,22.18
2023-05-21T15:05:59.146Z,22.02
2023-05-21T15:09:04.276Z,22.05
2023-05-21T15:12:10.762Z,22.07
2023-05-21T15:15:17.337Z,22.14
2023-05-21T15:18:22.455Z,21.93
2023-05-21T15:21:28.196Z,21.95
2023-05-21T15:24:33.322Z,22.03
2023-05-21T15:27:39.921Z,21.98
2023-05-21T15:30:45.075Z,21.77
2023-05-21T15:33:50.509Z,21.81
2023-05-21T15:36:55.536Z,21.75
2023-05-21T15:40:00.768Z,21.81
2023-05-21T15:43:07.422Z,21.68
2023-05-21T15:46:12.999Z,21.59
2023-05-21T15:49:18.203Z,21.83
2023-05-21T15:52:23.235Z,21.55
2023-05-21T15:55:28.259Z,21.51
2023-05-21T15:58:34.695Z,21.33
2023-05-21T16:01:39.880Z,21.24
2023-05-21T16:04:45.483Z,21.20
2023-05-21T16:07:50.527Z,21.04
2023-05-21T16:10:55.698Z,21.17
2023-05-21T16:14:02.058Z,21.12
2023-05-21T16:17:07.547Z,21.07
2023-05-21T16:20:14.293Z,20.96
2023-05-21T16:23:19.381Z,20.99
2023-05-21T16:26:24.420Z,20.87
2023-05-21T16:29:30.793Z,20.82
2023-05-21T16:32:35.919Z,20.74
2023-05-21T16:35:41.091Z,20.74
2023-05-21T16:38:46.104Z,20.78
2023-05-21T16:41:51.118Z,20.64
2023-05-21T16:44:57.683Z,20.62
2023-05-21T16:48:02.830Z,20.69
2023-05-21T16:51:08.021Z,20.48
2023-05-21T16:54:13.496Z,20.56
2023-05-21T16:57:18.479Z,20.38
2023-05-21T17:00:25.424Z,20.38
2023-05-21T17:03:32.099Z,20.24
2023-05-21T17:06:37.158Z,20.26
2023-05-21T17:09:42.142Z,20.20
2023-05-21T17:12:47.250Z,20.01
2023-05-21T17:15:54.064Z,19.97
2023-05-21T17:18:59.283Z,19.96
2023-05-21T17:22:04.533Z,20.00
2023-05-21T17:25:10.632Z,20.00
2023-05-21T17:28:15.744Z,19.89
2023-05-21T17:31:23.073Z,19.72
2023-05-21T17:34:29.703Z,19.63
2023-05-21T17:37:35.054Z,19.65
2023-05-21T17:40:40.094Z,19.58
2023-05-21T17:43:45.105Z,19.59
2023-05-21T17:46:52.931Z,19.49
2023-05-21T17:49:58.166Z,19.52
2023-05-21T17:53:03.296Z,19.44
2023-05-21T17:56:11.410Z,19.43
2023-05-21T17:59:17.163Z,19.34
2023-05-21T18:02:24.660Z,19.29
2023-05-21T18:05:29.757Z,19.39
2023-05-21T18:08:34.727Z,19.07
2023-05-21T18:11:39.939Z,19.06
2023-05-21T18:14:45.059Z,18.97
2023-05-21T18:17:51.559Z,18.79
2023-05-21T18:20:58.940Z,18.80
2023-05-21T18:24:04.394Z,18.68
2023-05-21T18:27:09.588Z,18.67
2023-05-21T18:30:15.343Z,18.56
2023-05-21T18:33:21.856Z,18.50
2023-05-21T18:36:26.871Z,18.51
2023-05-21T18:39:31.965Z,18.40
2023-05-21T18:42:37.052Z,18.31
2023-05-21T18:45:42.116Z,18.37
2023-05-21T18:48:48.910Z,18.17
2023-05-21T18:51:54.154Z,18.14
2023-05-21T18:54:59.484Z,18.07
2023-05-21T18:58:04.521Z,17.96
2023-05-21T19:01:09.670Z,17.86
2023-05-21T19:04:17.691Z,17.85
2023-05-21T19:07:22.705Z,17.78
2023-05-21T19:10:27.789Z,17.73
2023-05-21T19:13:32.901Z,17.66
2023-05-21T19:16:38.044Z,17.59
2023-05-21T19:19:44.556Z,17.45
2023-05-21T19:22:50.128Z,17.39
2023-05-21T19:25:55.168Z,17.37
2023-05-21T19:29:00.257Z,17.29
2023-05-21T19:32:05.652Z,17.26
2023-05-21T19:35:12.797Z,17.22
2023-05-21T19:38:17.892Z,17.16
2023-05-21T19:41:23.691Z,17.15
2023-05-21T19:44:28.681Z,16.91
2023-05-21T19:47:33.952Z,16.93
2023-05-21T19:50:40.461Z,16.95
2023-05-21T19:53:45.557Z,16.86
2023-05-21T19:56:50.801Z,16.91
2023-05-21T19:59:55.513Z,16.79
2023-05-21T20:03:00.785Z,16.69
2023-05-21T20:06:07.649Z,16.64
2023-05-21T20:09:13.748Z,16.57
2023-05-21T20:12:18.798Z,16.51
2023-05-21T20:15:24.122Z,16.53
2023-05-21T20:18:29.415Z,16.51
2023-05-21T20:21:36.306Z,16.44
2023-05-21T20:24:41.650Z,16.32
2023-05-21T20:27:46.785Z,16.01
2023-05-21T20:30:57.769Z,16.00
2023-05-21T20:34:07.096Z,15.92
2023-05-21T20:37:13.881Z,15.86
2023-05-21T20:40:22.248Z,15.81
2023-05-21T20:43:27.384Z,15.83
2023-05-21T20:46:32.560Z,15.81
2023-05-21T20:49:38.363Z,15.77
2023-05-21T20:52:47.130Z,15.69
2023-05-21T20:55:54.593Z,15.72
2023-05-21T20:58:59.850Z,15.68
2023-05-21T21:02:05.707Z,15.73
2023-05-21T21:05:11.685Z,15.59
2023-05-21T21:08:18.727Z,15.46
2023-05-21T21:11:24.848Z,15.51
2023-05-21T21:14:31.479Z,15.32
2023-05-21T21:17:37.267Z,15.40
2023-05-21T21:20:42.785Z,15.24
2023-05-21T21:23:49.483Z,15.17
2023-05-21T21:26:54.610Z,15.17
2023-05-21T21:29:59.671Z,15.09
2023-05-21T21:33:04.826Z,15.07
2023-05-21T21:36:13.280Z,15.08
2023-05-21T21:39:20.021Z,15.03
2023-05-21T21:42:25.205Z,14.95
2023-05-21T21:45:30.342Z,14.92
2023-05-21T21:48:36.318Z,14.91
2023-05-21T21:51:41.779Z,14.81
2023-05-21T21:54:48.299Z,14.72
2023-05-21T21:57:53.694Z,14.70
2023-05-21T22:00:59.035Z,14.70
2023-05-21T22:04:04.082Z,14.70
2023-05-21T22:07:10.827Z,14.67
2023-05-21T22:10:17.865Z,14.59
2023-05-21T22:13:23.079Z,14.61
2023-05-21T22:16:29.106Z,14.59
2023-05-21T22:19:34.245Z,14.52
2023-05-21T22:22:39.347Z,14.48
2023-05-21T22:25:45.894Z,14.44
2023-05-21T22:28:51.508Z,14.34
2023-05-21T22:31:56.869Z,14.34
2023-05-21T22:35:02.574Z,14.13
2023-05-21T22:38:07.788Z,14.26
2023-05-21T22:41:14.871Z,14.11
2023-05-21T22:44:20.351Z,13.99
2023-05-21T22:47:26.517Z,13.87
2023-05-21T22:50:32.963Z,13.73
2023-05-21T22:53:37.968Z,13.77
2023-05-21T22:56:45.034Z,13.59
2023-05-21T22:59:50.137Z,13.71
2023-05-21T23:02:55.318Z,13.75
2023-05-21T23:06:00.578Z,13.85
2023-05-21T23:09:06.160Z,13.75
2023-05-21T23:12:14.400Z,13.74
2023-05-21T23:15:19.436Z,13.67
2023-05-21T23:18:24.617Z,13.67
2023-05-21T23:21:29.701Z,13.68
2023-05-21T23:24:36.416Z,13.65
2023-05-21T23:27:42.833Z,13.30
2023-05-21T23:30:48.173Z,13.31
2023-05-21T23:33:53.266Z,13.18
2023-05-21T23:37:00.269Z,13.14
2023-05-21T23:40:06.688Z,13.07
2023-05-21T23:43:14.596Z,13.09
2023-05-21T23:46:19.691Z,13.08
2023-05-21T23:49:24.846Z,12.97
2023-05-21T23:52:29.838Z,12.98
2023-05-21T23:55:35.160Z,13.02
2023-05-21T23:58:41.537Z,13.09
